Camby, Indiana
Current Conditions -  °F | °C
As of 3:54 AM on Thursday 27 Nov 2014 (Local Time) from KIND Reporting Station
Overcast Overcast  
Wind Chill: 19°   Ceiling: 2100
Heat Index: 28°   Visibility: 9mi
Dew Point: 19°   Wind: 10mph
Humidity: 69%   Direction: 360°N
Pressure: 30.16"   Gusts: NA
Location:  39.66°N, 86.32°W
Report Text: KIND 270854Z 36009KT 9SM OVC021 M02/M07 A3016 RMK AO2 SNE49 SLP220 P0000 60000 T10221072 53017
Loading
Personal Weather Stations






























Interactive Weather Map New forecast layout! Learn more

10-Day Weather Forecast

Advertisements
Track Severe Weather on mobile